• Join FlightAware (Why Join?)
  • Login
  • US Flag 
10:36PM EDT


 

Airport Tracker/Info


-or-


 

Live Flight TrackerFlight Track Log ✈ EJA929 ✈ 22-May-2013 ✈ KBTV - KBWI

Flight Track Log - Related Links

Times and Time Zones

All times are in EDT time to prevent confusion due to time zone crossing. See the EJA929 flight status page for this flight to view local times or setup timezone preferences in your user account.

Time Position Orientation Groundspeed Altitude Reporting Facility
EDT Latitude Longitude Course Direction KTS MPH feet Rate Location/Type
09:02AM 44.4803 -73.1092 197° South 222 255 7,400  Level Boston Center
09:03AM 44.4114 -73.1347 195° South 222 255 10,000 2,100 Climbing Boston Center
09:04AM 44.3297 -73.1714 198° South 270 311 11,600 1,860 Climbing Boston Center
09:05AM 44.2358 -73.2081 196° South 316 364 13,800 2,220 Climbing Boston Center
09:06AM 44.1397 -73.2472 196° South 347 399 16,100 2,340 Climbing Boston Center
09:07AM 43.8318 -73.3859 197° South  Level FlightAware Approximate
09:07AM 44.0414 -73.2864 196° South 360 414 18,500  Level Boston Center
09:08AM 43.9433 -73.3253 196° South 360 414 20,800 2,280 Climbing Boston Center
09:09AM 43.8389 -73.3381 185° South 365 420 23,100 2,280 Climbing Boston Center
09:10AM 43.7325 -73.3508 185° South 381 438 25,400 2,280 Climbing Boston Center
09:11AM 43.6242 -73.3608 184° South 387 445 27,700 2,220 Climbing Boston Center
09:12AM 43.5136 -73.3792 187° South 392 451 29,900 1,920 Climbing Boston Center
09:13AM 43.4008 -73.4031 189° South 402 463 31,600 1,020 Climbing Boston Center
09:14AM 43.2756 -73.4239 187° South 429 494 32,000 180 Climbing Boston Center
09:15AM 43.1400 -73.4503 188° South 470 541 32,000  Level Boston Center
09:16AM 42.9939 -73.4761 187° South 509 586 32,000  Level Boston Center
09:17AM 42.8769 -73.4997 188° South 526 605 32,000  Level Boston Center
09:18AM 42.7244 -73.5281 188° South 526 605 32,000  Level Boston Center
09:19AM 42.5658 -73.5592 188° South 526 605 32,000  Level Boston Center
09:20AM 42.4217 -73.5847 187° South 526 605 32,000  Level Boston Center
09:21AM 42.2778 -73.6017 185° South 526 605 32,000  Level Boston Center
09:22AM 42.1481 -73.6358 191° South 521 600 32,000  Level Boston Center
09:23AM 42.0014 -73.7139 202° Southwest 528 608 32,000  Level Boston Center
09:24AM 41.8672 -73.7950 204° Southwest 528 608 32,000  Level Boston Center
09:25AM 41.7558 -73.8567 202° Southwest 519 597 32,000  Level Boston Center
09:27AM 41.4583 -74.0264 203° Southwest 502 578 32,000  Level New York Center
09:28AM 41.3272 -74.1003 203° Southwest 508 585 32,000  Level New York Center
09:29AM 41.1917 -74.1789 204° Southwest 508 585 32,000  Level New York Center
09:30AM 41.0583 -74.2464 201° Southwest 513 590 32,000 -840 Level New York Center
09:31AM 40.9292 -74.3222 204° Southwest 519 597 30,400 -2,040 Descending New York Center
09:32AM 40.8083 -74.3872 202° Southwest 496 571 28,100 -1,260 Descending New York Center
09:33AM 40.7258 -74.4978 225° Southwest 440 506 28,000 -60 Descending New York Center
09:34AM 40.6617 -74.6147 234° Southwest 440 506 28,000 -600 Level New York Center
09:35AM 40.5847 -74.7333 230° Southwest 440 506 26,900 -1,680 Descending New York Center
09:36AM 40.5078 -74.8517 229° Southwest 440 506 24,700 -2,760 Descending New York Center
09:37AM 40.4333 -74.9536 226° Southwest 420 483 21,400 -2,580 Descending New York Center
09:38AM 40.3608 -75.0556 227° Southwest 403 464 19,600 -1,200 Descending New York Center
09:39AM 40.2839 -75.1650 227° Southwest 382 440 19,000 -360 Descending New York Center
09:40AM 40.2114 -75.2636 226° Southwest 376 433 19,000  Level New York Center
09:41AM 40.1431 -75.3625 228° Southwest 383 441 19,000  Level New York Center
09:42AM 40.0811 -75.4481 227° Southwest 378 435 19,000  Level New York Center
09:43AM 40.0128 -75.5408 226° Southwest 341 392 19,000  Level New York Center
09:44AM 39.9597 -75.6158 227° Southwest 327 376 19,000  Level New York Center
09:45AM 39.8953 -75.7142 230° Southwest 327 376 19,000 -600 Level New York Center
09:46AM 39.8522 -75.7978 236° Southwest 317 365 17,800 -1,560 Descending New York Center
09:47AM 39.7667 -75.9500 234° Southwest 301 346 15,000 -1,740 Descending Potomac TRACON
09:48AM 39.7167 -76.0333 232° Southwest 290 334 13,400 -1,560 Descending Potomac TRACON
09:49AM 39.6833 -76.1167 243° Southwest 280 322 12,100 -960 Descending Potomac TRACON
09:50AM 39.6500 -76.2000 243° Southwest 281 323 11,600 -1,260 Descending Potomac TRACON
09:51AM 39.6000 -76.2833 232° Southwest 272 313 9,600 -2,040 Descending Potomac TRACON
09:52AM 39.5500 -76.3333 218° Southwest 272 313 7,800 -2,040 Descending Potomac TRACON
09:53AM 39.4833 -76.3833 210° Southwest 267 307 5,800 -1,980 Descending Potomac TRACON
09:54AM 39.4333 -76.4333 218° Southwest 269 310 4,100 -1,500 Descending Potomac TRACON
09:55AM 39.3500 -76.4333 180° South 264 304 3,000 -600 Descending Potomac TRACON
09:56AM 39.2833 -76.4167 169° South 272 313 3,000  Level Potomac TRACON
09:57AM 39.2167 -76.4167 180° South 266 306 3,000  Level Potomac TRACON
09:58AM 39.1667 -76.4167 180° South 214 246 3,000  Level Potomac TRACON